In Rescue
 
Open Full Screen Window  High Contrast Mode
Wind Gusting 24 knots
20
January 20, 2021 4:25 PM CST
Weather Information
Wind Direction
  290 °
Wind Speed
  20 kt (23 mph)
Wind Gust
  24 kt (28 mph)
Altimeter
29.59 in
Visibility
10 SM
Temperature
02° C
36° F
Dewpoint
-03° C
27° F
Humidity
70%
1hr Rain Fall
00.00 in.
24hr Rain Fall
00.01 in.
Sky Condition
Scattered @ 6,000 ft
VFR

METAR KFFM 202225Z AUTO 29020G24KT 10SM SCT060 02/M03 A2959 RMK AO2

FAA Disclaimer: The data displayed is for advisory purposes only and is not to be used for flight planning or operations.